sensor_id;sensor_type;location;lat;lon;timestamp;pressure;altitude;pressure_sealevel;temperature;humidity
11085;BME280;5596;46.826;8.650;2023-03-24T00:02:08;95619.97;;;18.54;48.10
11085;BME280;5596;46.826;8.650;2023-03-24T00:04:35;95612.97;;;18.48;48.68
11085;BME280;5596;46.826;8.650;2023-03-24T00:07:04;95628.13;;;18.41;49.47
11085;BME280;5596;46.826;8.650;2023-03-24T00:09:33;95617.38;;;17.93;55.50
11085;BME280;5596;46.826;8.650;2023-03-24T00:12:00;95619.00;;;17.47;58.28
11085;BME280;5596;46.826;8.650;2023-03-24T00:14:28;95612.94;;;17.02;61.25
11085;BME280;5596;46.826;8.650;2023-03-24T00:16:55;95615.78;;;16.63;64.63
11085;BME280;5596;46.826;8.650;2023-03-24T00:19:24;95604.41;;;16.17;67.74
11085;BME280;5596;46.826;8.650;2023-03-24T00:21:51;95607.06;;;15.88;70.31
11085;BME280;5596;46.826;8.650;2023-03-24T00:24:21;95612.41;;;15.54;73.03
11085;BME280;5596;46.826;8.650;2023-03-24T00:26:49;95614.16;;;15.20;75.95
11085;BME280;5596;46.826;8.650;2023-03-24T00:29:16;95588.59;;;15.15;71.42
11085;BME280;5596;46.826;8.650;2023-03-24T00:31:43;95596.41;;;15.37;72.59
11085;BME280;5596;46.826;8.650;2023-03-24T00:34:12;95590.41;;;15.35;74.38
11085;BME280;5596;46.826;8.650;2023-03-24T00:36:39;95605.38;;;15.33;75.98
11085;BME280;5596;46.826;8.650;2023-03-24T00:39:06;95578.78;;;16.18;61.61
11085;BME280;5596;46.826;8.650;2023-03-24T00:41:34;95578.25;;;17.31;56.20
11085;BME280;5596;46.826;8.650;2023-03-24T00:44:01;95570.78;;;17.61;55.20
11085;BME280;5596;46.826;8.650;2023-03-24T00:46:30;95575.81;;;17.77;53.92
11085;BME280;5596;46.826;8.650;2023-03-24T00:48:58;95567.59;;;17.96;52.91
11085;BME280;5596;46.826;8.650;2023-03-24T00:51:29;95552.44;;;18.04;52.10
11085;BME280;5596;46.826;8.650;2023-03-24T00:53:56;95537.19;;;18.03;52.18
11085;BME280;5596;46.826;8.650;2023-03-24T00:56:24;95550.63;;;17.99;52.18
11085;BME280;5596;46.826;8.650;2023-03-24T00:58:54;95543.00;;;17.96;52.08
11085;BME280;5596;46.826;8.650;2023-03-24T01:01:23;95543.16;;;18.05;51.42
11085;BME280;5596;46.826;8.650;2023-03-24T01:03:50;95531.88;;;18.11;51.30
11085;BME280;5596;46.826;8.650;2023-03-24T01:06:17;95534.06;;;18.09;51.32
11085;BME280;5596;46.826;8.650;2023-03-24T01:08:46;95529.72;;;18.08;51.40
11085;BME280;5596;46.826;8.650;2023-03-24T01:11:15;95523.16;;;18.09;51.20
11085;BME280;5596;46.826;8.650;2023-03-24T01:13:42;95522.63;;;18.07;51.14
11085;BME280;5596;46.826;8.650;2023-03-24T01:16:10;95520.72;;;18.08;50.90
11085;BME280;5596;46.826;8.650;2023-03-24T01:18:37;95518.66;;;18.00;51.67
11085;BME280;5596;46.826;8.650;2023-03-24T01:21:05;95533.78;;;17.92;51.99
11085;BME280;5596;46.826;8.650;2023-03-24T01:23:32;95510.72;;;17.85;51.95
11085;BME280;5596;46.826;8.650;2023-03-24T01:26:02;95509.22;;;17.92;51.31
11085;BME280;5596;46.826;8.650;2023-03-24T01:28:30;95510.56;;;17.95;51.60
11085;BME280;5596;46.826;8.650;2023-03-24T01:30:57;95514.06;;;17.95;51.80
11085;BME280;5596;46.826;8.650;2023-03-24T01:33:25;95489.16;;;17.83;51.91
11085;BME280;5596;46.826;8.650;2023-03-24T01:35:52;95504.72;;;17.83;51.83
11085;BME280;5596;46.826;8.650;2023-03-24T01:38:19;95497.09;;;17.80;51.79
11085;BME280;5596;46.826;8.650;2023-03-24T01:40:46;95494.38;;;17.80;51.75
11085;BME280;5596;46.826;8.650;2023-03-24T01:43:16;95499.97;;;17.88;51.11
11085;BME280;5596;46.826;8.650;2023-03-24T01:45:50;95485.28;;;18.03;50.63
11085;BME280;5596;46.826;8.650;2023-03-24T01:48:21;95487.94;;;18.08;50.38
11085;BME280;5596;46.826;8.650;2023-03-24T01:50:51;95495.53;;;18.11;50.27
11085;BME280;5596;46.826;8.650;2023-03-24T01:53:22;95491.63;;;18.31;49.36
11085;BME280;5596;46.826;8.650;2023-03-24T01:55:50;95504.28;;;18.27;49.70
11085;BME280;5596;46.826;8.650;2023-03-24T01:58:22;95485.16;;;18.27;49.43
11085;BME280;5596;46.826;8.650;2023-03-24T02:01:04;95501.56;;;18.27;49.56
11085;BME280;5596;46.826;8.650;2023-03-24T02:04:06;95522.31;;;18.28;49.14
11085;BME280;5596;46.826;8.650;2023-03-24T02:06:37;95492.41;;;18.18;49.95
11085;BME280;5596;46.826;8.650;2023-03-24T02:09:07;95501.03;;;18.25;48.98
11085;BME280;5596;46.826;8.650;2023-03-24T02:11:34;95506.78;;;18.23;49.43
11085;BME280;5596;46.826;8.650;2023-03-24T02:14:04;95503.19;;;18.28;49.14
11085;BME280;5596;46.826;8.650;2023-03-24T02:16:40;95509.53;;;18.23;49.71
11085;BME280;5596;46.826;8.650;2023-03-24T02:22:09;95484.91;;;18.09;50.31
11085;BME280;5596;46.826;8.650;2023-03-24T02:24:49;95489.75;;;18.12;50.21
11085;BME280;5596;46.826;8.650;2023-03-24T02:27:26;95489.16;;;18.15;50.34
11085;BME280;5596;46.826;8.650;2023-03-24T02:32:50;95463.47;;;18.17;50.40
11085;BME280;5596;46.826;8.650;2023-03-24T02:35:29;95462.44;;;18.12;50.58
11085;BME280;5596;46.826;8.650;2023-03-24T02:40:44;95456.53;;;18.05;50.96
11085;BME280;5596;46.826;8.650;2023-03-24T02:43:16;95466.66;;;18.05;50.69
11085;BME280;5596;46.826;8.650;2023-03-24T02:45:48;95459.97;;;17.97;51.15
11085;BME280;5596;46.826;8.650;2023-03-24T02:48:20;95465.53;;;17.92;51.55
11085;BME280;5596;46.826;8.650;2023-03-24T02:50:50;95457.84;;;17.94;51.57
11085;BME280;5596;46.826;8.650;2023-03-24T02:53:21;95454.97;;;17.86;52.28
11085;BME280;5596;46.826;8.650;2023-03-24T02:56:20;95454.47;;;17.84;52.11
11085;BME280;5596;46.826;8.650;2023-03-24T02:58:54;95459.13;;;17.83;52.15
11085;BME280;5596;46.826;8.650;2023-03-24T03:01:24;95451.34;;;17.90;51.86
11085;BME280;5596;46.826;8.650;2023-03-24T03:04:25;95457.88;;;17.75;52.77
11085;BME280;5596;46.826;8.650;2023-03-24T03:06:57;95459.56;;;17.71;52.90
11085;BME280;5596;46.826;8.650;2023-03-24T03:09:26;95455.19;;;17.70;52.64
11085;BME280;5596;46.826;8.650;2023-03-24T03:11:55;95469.66;;;17.71;52.65
11085;BME280;5596;46.826;8.650;2023-03-24T03:14:29;95458.97;;;17.74;52.62
11085;BME280;5596;46.826;8.650;2023-03-24T03:16:59;95450.66;;;17.66;53.21
11085;BME280;5596;46.826;8.650;2023-03-24T03:19:31;95426.06;;;17.66;53.18
11085;BME280;5596;46.826;8.650;2023-03-24T03:22:00;95429.81;;;17.70;52.44
11085;BME280;5596;46.826;8.650;2023-03-24T03:24:29;95404.06;;;17.76;52.44
11085;BME280;5596;46.826;8.650;2023-03-24T03:27:00;95427.75;;;17.81;51.97
11085;BME280;5596;46.826;8.650;2023-03-24T03:29:28;95414.31;;;17.84;51.74
11085;BME280;5596;46.826;8.650;2023-03-24T03:31:59;95417.63;;;17.81;52.12
11085;BME280;5596;46.826;8.650;2023-03-24T03:34:34;95412.28;;;17.76;52.40
11085;BME280;5596;46.826;8.650;2023-03-24T03:37:03;95410.69;;;17.70;52.99
11085;BME280;5596;46.826;8.650;2023-03-24T03:39:32;95405.25;;;17.70;53.12
11085;BME280;5596;46.826;8.650;2023-03-24T03:42:05;95401.84;;;17.78;51.92
11085;BME280;5596;46.826;8.650;2023-03-24T03:44:32;95406.81;;;17.76;52.78
11085;BME280;5596;46.826;8.650;2023-03-24T03:46:59;95376.78;;;17.76;52.40
11085;BME280;5596;46.826;8.650;2023-03-24T03:49:37;95398.31;;;17.77;52.15
11085;BME280;5596;46.826;8.650;2023-03-24T03:52:04;95406.88;;;17.71;52.62
11085;BME280;5596;46.826;8.650;2023-03-24T03:54:31;95394.31;;;17.70;52.53
11085;BME280;5596;46.826;8.650;2023-03-24T03:56:58;95380.38;;;17.71;52.42
11085;BME280;5596;46.826;8.650;2023-03-24T03:59:31;95391.59;;;17.70;52.47
11085;BME280;5596;46.826;8.650;2023-03-24T04:02:01;95401.50;;;17.66;53.00
11085;BME280;5596;46.826;8.650;2023-03-24T04:07:39;95390.59;;;17.66;52.88
11085;BME280;5596;46.826;8.650;2023-03-24T04:10:21;95391.91;;;17.68;52.11
11085;BME280;5596;46.826;8.650;2023-03-24T04:12:59;95393.50;;;17.69;52.53
11085;BME280;5596;46.826;8.650;2023-03-24T04:16:04;95385.44;;;17.78;51.94
11085;BME280;5596;46.826;8.650;2023-03-24T04:19:06;95378.47;;;17.72;51.74
11085;BME280;5596;46.826;8.650;2023-03-24T04:21:45;95378.41;;;17.77;51.82
11085;BME280;5596;46.826;8.650;2023-03-24T04:24:19;95382.53;;;17.74;51.63
11085;BME280;5596;46.826;8.650;2023-03-24T04:26:53;95378.41;;;17.77;51.59
11085;BME280;5596;46.826;8.650;2023-03-24T04:29:29;95388.19;;;17.78;51.36
11085;BME280;5596;46.826;8.650;2023-03-24T04:32:01;95393.19;;;17.90;50.75
11085;BME280;5596;46.826;8.650;2023-03-24T04:34:31;95403.69;;;17.83;50.88
11085;BME280;5596;46.826;8.650;2023-03-24T04:37:07;95399.09;;;17.78;50.94
11085;BME280;5596;46.826;8.650;2023-03-24T04:39:43;95395.72;;;17.86;50.93
11085;BME280;5596;46.826;8.650;2023-03-24T04:42:15;95403.91;;;17.86;50.92
11085;BME280;5596;46.826;8.650;2023-03-24T04:44:44;95411.72;;;17.93;50.15
11085;BME280;5596;46.826;8.650;2023-03-24T04:47:27;95399.88;;;17.97;49.69
11085;BME280;5596;46.826;8.650;2023-03-24T04:50:29;95400.38;;;17.99;49.96
11085;BME280;5596;46.826;8.650;2023-03-24T04:52:58;95397.66;;;17.99;49.86
11085;BME280;5596;46.826;8.650;2023-03-24T04:55:33;95398.75;;;17.98;49.85
11085;BME280;5596;46.826;8.650;2023-03-24T04:58:03;95400.28;;;18.04;49.38
11085;BME280;5596;46.826;8.650;2023-03-24T05:00:30;95404.75;;;18.00;49.48
11085;BME280;5596;46.826;8.650;2023-03-24T05:02:58;95400.50;;;17.94;50.04
11085;BME280;5596;46.826;8.650;2023-03-24T05:05:26;95409.19;;;17.96;49.91
11085;BME280;5596;46.826;8.650;2023-03-24T05:07:53;95401.09;;;17.91;49.67
11085;BME280;5596;46.826;8.650;2023-03-24T05:10:21;95404.34;;;17.93;49.89
11085;BME280;5596;46.826;8.650;2023-03-24T05:12:53;95407.88;;;17.94;49.60
11085;BME280;5596;46.826;8.650;2023-03-24T05:15:25;95410.28;;;17.95;50.06
11085;BME280;5596;46.826;8.650;2023-03-24T05:18:20;95407.66;;;17.90;50.12
11085;BME280;5596;46.826;8.650;2023-03-24T05:20:47;95410.38;;;17.90;50.61
11085;BME280;5596;46.826;8.650;2023-03-24T05:23:18;95407.34;;;17.92;50.08
11085;BME280;5596;46.826;8.650;2023-03-24T05:25:46;95414.84;;;17.86;50.56
11085;BME280;5596;46.826;8.650;2023-03-24T05:28:14;95420.88;;;17.83;50.45
11085;BME280;5596;46.826;8.650;2023-03-24T05:30:42;95418.72;;;17.80;51.12
11085;BME280;5596;46.826;8.650;2023-03-24T05:33:30;95416.63;;;17.77;51.08
11085;BME280;5596;46.826;8.650;2023-03-24T05:35:58;95425.25;;;17.84;50.23
11085;BME280;5596;46.826;8.650;2023-03-24T05:38:25;95428.34;;;17.77;51.06
11085;BME280;5596;46.826;8.650;2023-03-24T05:40:55;95440.16;;;17.73;51.29
11085;BME280;5596;46.826;8.650;2023-03-24T05:43:21;95441.63;;;17.84;50.57
11085;BME280;5596;46.826;8.650;2023-03-24T05:45:57;95433.50;;;17.79;51.14
11085;BME280;5596;46.826;8.650;2023-03-24T05:48:32;95439.47;;;17.81;51.09
11085;BME280;5596;46.826;8.650;2023-03-24T05:51:18;95443.84;;;17.82;50.97
11085;BME280;5596;46.826;8.650;2023-03-24T05:53:53;95440.06;;;17.78;51.18
11085;BME280;5596;46.826;8.650;2023-03-24T05:56:46;95452.41;;;17.75;51.22
11085;BME280;5596;46.826;8.650;2023-03-24T05:59:30;95454.03;;;17.76;51.09
11085;BME280;5596;46.826;8.650;2023-03-24T06:02:13;95458.69;;;17.76;51.33
11085;BME280;5596;46.826;8.650;2023-03-24T06:04:56;95472.09;;;17.72;52.12
11085;BME280;5596;46.826;8.650;2023-03-24T06:07:24;95473.00;;;17.68;52.04
11085;BME280;5596;46.826;8.650;2023-03-24T06:09:52;95471.44;;;17.62;53.20
11085;BME280;5596;46.826;8.650;2023-03-24T06:12:22;95475.03;;;17.57;53.34
11085;BME280;5596;46.826;8.650;2023-03-24T06:14:56;95468.25;;;17.55;53.75
11085;BME280;5596;46.826;8.650;2023-03-24T06:17:23;95467.81;;;17.48;53.77
11085;BME280;5596;46.826;8.650;2023-03-24T06:19:54;95473.38;;;17.19;62.24
11085;BME280;5596;46.826;8.650;2023-03-24T06:22:35;95476.22;;;16.37;71.51
11085;BME280;5596;46.826;8.650;2023-03-24T06:25:07;95476.34;;;15.93;76.41
11085;BME280;5596;46.826;8.650;2023-03-24T06:27:35;95493.00;;;15.42;81.09
11085;BME280;5596;46.826;8.650;2023-03-24T06:30:03;95477.09;;;15.21;84.27
11085;BME280;5596;46.826;8.650;2023-03-24T06:32:31;95471.16;;;15.13;86.25
11085;BME280;5596;46.826;8.650;2023-03-24T06:34:58;95487.78;;;15.02;87.81
11085;BME280;5596;46.826;8.650;2023-03-24T06:37:39;95481.13;;;14.64;91.86
11085;BME280;5596;46.826;8.650;2023-03-24T06:40:10;95498.59;;;14.27;95.33
11085;BME280;5596;46.826;8.650;2023-03-24T06:42:46;95496.94;;;14.26;96.73
11085;BME280;5596;46.826;8.650;2023-03-24T06:45:14;95484.44;;;14.35;96.35
11085;BME280;5596;46.826;8.650;2023-03-24T06:47:41;95490.69;;;14.51;96.92
11085;BME280;5596;46.826;8.650;2023-03-24T06:50:09;95511.03;;;14.59;95.46
11085;BME280;5596;46.826;8.650;2023-03-24T06:52:35;95509.69;;;14.61;95.87
11085;BME280;5596;46.826;8.650;2023-03-24T06:55:04;95520.78;;;14.75;93.18
11085;BME280;5596;46.826;8.650;2023-03-24T06:57:32;95533.50;;;14.85;92.21
11085;BME280;5596;46.826;8.650;2023-03-24T07:00:37;95543.56;;;14.84;91.39
11085;BME280;5596;46.826;8.650;2023-03-24T07:03:34;95562.31;;;14.96;90.65
11085;BME280;5596;46.826;8.650;2023-03-24T07:06:20;95569.66;;;14.85;92.62
11085;BME280;5596;46.826;8.650;2023-03-24T07:08:59;95583.81;;;14.77;93.29
11085;BME280;5596;46.826;8.650;2023-03-24T07:11:29;95589.78;;;14.74;92.36
11085;BME280;5596;46.826;8.650;2023-03-24T07:13:58;95599.56;;;14.75;91.51
11085;BME280;5596;46.826;8.650;2023-03-24T07:16:27;95606.63;;;14.81;89.38
11085;BME280;5596;46.826;8.650;2023-03-24T07:19:19;95602.81;;;14.92;89.40
11085;BME280;5596;46.826;8.650;2023-03-24T07:21:53;95621.81;;;15.02;87.30
11085;BME280;5596;46.826;8.650;2023-03-24T07:24:32;95627.78;;;15.04;87.84
11085;BME280;5596;46.826;8.650;2023-03-24T07:27:14;95628.34;;;15.01;89.98
11085;BME280;5596;46.826;8.650;2023-03-24T07:29:41;95637.06;;;14.93;91.22
11085;BME280;5596;46.826;8.650;2023-03-24T07:32:16;95643.59;;;14.87;93.88
11085;BME280;5596;46.826;8.650;2023-03-24T07:34:43;95635.44;;;14.72;97.19
11085;BME280;5596;46.826;8.650;2023-03-24T07:37:10;95650.13;;;14.56;100.00
11085;BME280;5596;46.826;8.650;2023-03-24T07:39:37;95661.53;;;14.43;100.00
11085;BME280;5596;46.826;8.650;2023-03-24T07:42:05;95677.78;;;14.27;100.00
11085;BME280;5596;46.826;8.650;2023-03-24T07:44:53;95689.19;;;14.24;100.00
11085;BME280;5596;46.826;8.650;2023-03-24T07:47:20;95686.19;;;14.16;100.00
11085;BME280;5596;46.826;8.650;2023-03-24T07:49:47;95694.56;;;14.04;100.00
11085;BME280;5596;46.826;8.650;2023-03-24T07:52:14;95711.38;;;13.96;100.00
11085;BME280;5596;46.826;8.650;2023-03-24T07:54:45;95713.25;;;13.85;100.00
11085;BME280;5596;46.826;8.650;2023-03-24T07:57:29;95716.75;;;13.81;100.00
11085;BME280;5596;46.826;8.650;2023-03-24T07:59:57;95712.34;;;13.64;100.00
11085;BME280;5596;46.826;8.650;2023-03-24T08:02:40;95715.56;;;13.51;100.00
11085;BME280;5596;46.826;8.650;2023-03-24T08:05:28;95728.25;;;13.46;100.00
11085;BME280;5596;46.826;8.650;2023-03-24T08:08:18;95745.88;;;13.43;100.00
11085;BME280;5596;46.826;8.650;2023-03-24T08:10:46;95722.50;;;13.37;100.00
11085;BME280;5596;46.826;8.650;2023-03-24T08:13:14;95726.84;;;13.33;100.00
11085;BME280;5596;46.826;8.650;2023-03-24T08:15:42;95740.97;;;13.35;100.00
11085;BME280;5596;46.826;8.650;2023-03-24T08:18:10;95733.91;;;13.39;100.00
11085;BME280;5596;46.826;8.650;2023-03-24T08:20:36;95742.06;;;13.44;100.00
11085;BME280;5596;46.826;8.650;2023-03-24T08:23:03;95746.72;;;13.49;100.00
11085;BME280;5596;46.826;8.650;2023-03-24T08:25:30;95748.06;;;13.46;100.00
11085;BME280;5596;46.826;8.650;2023-03-24T08:27:57;95759.78;;;13.52;100.00
11085;BME280;5596;46.826;8.650;2023-03-24T08:30:24;95770.28;;;13.43;100.00
11085;BME280;5596;46.826;8.650;2023-03-24T08:32:54;95771.31;;;13.32;100.00
11085;BME280;5596;46.826;8.650;2023-03-24T08:35:22;95765.53;;;13.23;100.00
11085;BME280;5596;46.826;8.650;2023-03-24T08:37:49;95772.88;;;13.28;100.00
11085;BME280;5596;46.826;8.650;2023-03-24T08:40:16;95769.56;;;13.16;100.00
11085;BME280;5596;46.826;8.650;2023-03-24T08:42:46;95766.38;;;13.24;100.00
11085;BME280;5596;46.826;8.650;2023-03-24T08:45:13;95778.28;;;13.23;100.00
11085;BME280;5596;46.826;8.650;2023-03-24T08:47:40;95762.31;;;13.27;100.00
11085;BME280;5596;46.826;8.650;2023-03-24T08:50:09;95765.09;;;13.05;100.00
11085;BME280;5596;46.826;8.650;2023-03-24T08:52:36;95758.19;;;12.87;100.00
11085;BME280;5596;46.826;8.650;2023-03-24T08:55:02;95761.78;;;12.93;100.00
11085;BME280;5596;46.826;8.650;2023-03-24T08:57:30;95760.72;;;12.99;100.00
11085;BME280;5596;46.826;8.650;2023-03-24T08:59:57;95752.53;;;12.94;100.00
11085;BME280;5596;46.826;8.650;2023-03-24T09:02:23;95740.03;;;12.87;100.00
11085;BME280;5596;46.826;8.650;2023-03-24T09:04:50;95726.59;;;13.03;100.00
11085;BME280;5596;46.826;8.650;2023-03-24T09:07:20;95724.44;;;13.05;100.00
11085;BME280;5596;46.826;8.650;2023-03-24T09:09:47;95726.25;;;13.26;100.00
11085;BME280;5596;46.826;8.650;2023-03-24T09:12:14;95722.00;;;13.45;100.00
11085;BME280;5596;46.826;8.650;2023-03-24T09:14:41;95721.00;;;13.56;100.00
11085;BME280;5596;46.826;8.650;2023-03-24T09:17:08;95708.31;;;13.72;100.00
11085;BME280;5596;46.826;8.650;2023-03-24T09:19:35;95702.97;;;13.92;100.00
11085;BME280;5596;46.826;8.650;2023-03-24T09:22:02;95709.84;;;14.20;100.00
11085;BME280;5596;46.826;8.650;2023-03-24T09:24:31;95700.59;;;14.31;100.00
11085;BME280;5596;46.826;8.650;2023-03-24T09:26:58;95703.34;;;14.36;100.00
11085;BME280;5596;46.826;8.650;2023-03-24T09:29:24;95697.31;;;14.29;100.00
11085;BME280;5596;46.826;8.650;2023-03-24T09:31:51;95690.03;;;14.35;100.00
11085;BME280;5596;46.826;8.650;2023-03-24T09:34:18;95691.69;;;14.46;100.00
11085;BME280;5596;46.826;8.650;2023-03-24T09:36:46;95681.09;;;14.55;100.00
11085;BME280;5596;46.826;8.650;2023-03-24T09:39:13;95679.75;;;14.62;100.00
11085;BME280;5596;46.826;8.650;2023-03-24T09:41:41;95680.84;;;14.76;100.00
11085;BME280;5596;46.826;8.650;2023-03-24T09:44:12;95669.44;;;14.80;100.00
11085;BME280;5596;46.826;8.650;2023-03-24T09:46:45;95660.97;;;14.81;100.00
11085;BME280;5596;46.826;8.650;2023-03-24T09:49:14;95659.63;;;14.84;100.00
11085;BME280;5596;46.826;8.650;2023-03-24T09:51:45;95656.09;;;14.83;100.00
11085;BME280;5596;46.826;8.650;2023-03-24T09:54:13;95648.19;;;14.97;100.00
11085;BME280;5596;46.826;8.650;2023-03-24T09:56:45;95647.06;;;15.13;100.00
11085;BME280;5596;46.826;8.650;2023-03-24T09:59:15;95653.84;;;15.31;100.00
11085;BME280;5596;46.826;8.650;2023-03-24T10:01:43;95637.47;;;15.36;100.00
11085;BME280;5596;46.826;8.650;2023-03-24T10:04:12;95630.41;;;15.35;100.00
11085;BME280;5596;46.826;8.650;2023-03-24T10:06:40;95621.44;;;15.34;100.00
11085;BME280;5596;46.826;8.650;2023-03-24T10:09:11;95628.72;;;15.49;100.00
11085;BME280;5596;46.826;8.650;2023-03-24T10:11:41;95625.97;;;15.59;100.00
11085;BME280;5596;46.826;8.650;2023-03-24T10:14:21;95623.41;;;15.88;100.00
11085;BME280;5596;46.826;8.650;2023-03-24T10:16:57;95622.81;;;15.96;100.00
11085;BME280;5596;46.826;8.650;2023-03-24T10:19:37;95596.94;;;15.99;100.00
11085;BME280;5596;46.826;8.650;2023-03-24T10:22:12;95591.66;;;16.12;100.00
11085;BME280;5596;46.826;8.650;2023-03-24T10:24:41;95596.03;;;16.42;100.00
11085;BME280;5596;46.826;8.650;2023-03-24T10:27:14;95601.47;;;16.47;100.00
11085;BME280;5596;46.826;8.650;2023-03-24T10:29:44;95586.56;;;16.69;100.00
11085;BME280;5596;46.826;8.650;2023-03-24T10:32:14;95585.94;;;16.77;100.00
11085;BME280;5596;46.826;8.650;2023-03-24T10:34:47;95582.91;;;16.83;100.00
11085;BME280;5596;46.826;8.650;2023-03-24T10:39:10;95589.38;;;16.87;99.22
11085;BME280;5596;46.826;8.650;2023-03-24T10:41:40;95575.00;;;16.82;96.99
11085;BME280;5596;46.826;8.650;2023-03-24T10:44:08;95569.31;;;16.78;98.34
11085;BME280;5596;46.826;8.650;2023-03-24T10:46:36;95572.22;;;16.87;97.82
11085;BME280;5596;46.826;8.650;2023-03-24T10:49:06;95584.88;;;17.01;95.10
11085;BME280;5596;46.826;8.650;2023-03-24T10:51:34;95582.50;;;17.19;98.07
11085;BME280;5596;46.826;8.650;2023-03-24T10:54:10;95574.72;;;17.31;96.85
11085;BME280;5596;46.826;8.650;2023-03-24T10:56:38;95560.16;;;17.40;100.00
11085;BME280;5596;46.826;8.650;2023-03-24T10:59:13;95565.13;;;17.57;100.00
11085;BME280;5596;46.826;8.650;2023-03-24T11:01:44;95573.13;;;17.49;100.00
11085;BME280;5596;46.826;8.650;2023-03-24T11:04:12;95566.91;;;17.24;100.00
11085;BME280;5596;46.826;8.650;2023-03-24T11:06:51;95575.59;;;17.02;100.00
11085;BME280;5596;46.826;8.650;2023-03-24T11:09:20;95566.75;;;16.87;100.00
11085;BME280;5596;46.826;8.650;2023-03-24T11:11:47;95567.72;;;17.01;100.00
11085;BME280;5596;46.826;8.650;2023-03-24T11:14:20;95567.91;;;17.28;100.00
11085;BME280;5596;46.826;8.650;2023-03-24T11:16:49;95558.22;;;17.65;100.00
11085;BME280;5596;46.826;8.650;2023-03-24T11:19:17;95563.38;;;17.66;100.00
11085;BME280;5596;46.826;8.650;2023-03-24T11:21:44;95560.19;;;17.78;100.00
11085;BME280;5596;46.826;8.650;2023-03-24T11:24:12;95564.66;;;18.11;99.03
11085;BME280;5596;46.826;8.650;2023-03-24T11:26:43;95563.66;;;18.21;97.31
11085;BME280;5596;46.826;8.650;2023-03-24T11:29:11;95562.25;;;18.24;99.69
11085;BME280;5596;46.826;8.650;2023-03-24T11:31:40;95559.25;;;18.06;100.00
11085;BME280;5596;46.826;8.650;2023-03-24T11:34:08;95568.09;;;17.80;100.00
11085;BME280;5596;46.826;8.650;2023-03-24T11:36:39;95572.44;;;17.62;100.00
11085;BME280;5596;46.826;8.650;2023-03-24T11:39:11;95561.25;;;17.39;100.00
11085;BME280;5596;46.826;8.650;2023-03-24T11:41:40;95555.09;;;17.29;100.00
11085;BME280;5596;46.826;8.650;2023-03-24T11:44:15;95550.94;;;17.13;100.00
11085;BME280;5596;46.826;8.650;2023-03-24T11:46:42;95556.38;;;16.89;100.00
11085;BME280;5596;46.826;8.650;2023-03-24T11:49:09;95555.97;;;16.77;100.00
11085;BME280;5596;46.826;8.650;2023-03-24T11:51:40;95558.19;;;16.75;100.00
11085;BME280;5596;46.826;8.650;2023-03-24T11:54:08;95573.00;;;16.63;100.00
11085;BME280;5596;46.826;8.650;2023-03-24T11:56:38;95567.59;;;16.53;100.00
11085;BME280;5596;46.826;8.650;2023-03-24T11:59:06;95566.56;;;16.49;100.00
11085;BME280;5596;46.826;8.650;2023-03-24T12:01:36;95574.84;;;16.34;100.00
11085;BME280;5596;46.826;8.650;2023-03-24T12:04:11;95574.38;;;16.27;100.00
11085;BME280;5596;46.826;8.650;2023-03-24T12:06:48;95570.91;;;16.16;100.00
11085;BME280;5596;46.826;8.650;2023-03-24T12:09:23;95554.97;;;16.00;100.00
11085;BME280;5596;46.826;8.650;2023-03-24T12:12:07;95550.66;;;15.94;100.00
11085;BME280;5596;46.826;8.650;2023-03-24T12:16:15;95546.78;;;16.05;100.00
11085;BME280;5596;46.826;8.650;2023-03-24T12:18:56;95556.00;;;16.09;100.00
11085;BME280;5596;46.826;8.650;2023-03-24T12:21:33;95565.78;;;16.15;100.00
11085;BME280;5596;46.826;8.650;2023-03-24T12:24:04;95557.63;;;16.10;100.00
11085;BME280;5596;46.826;8.650;2023-03-24T12:26:34;95577.72;;;15.75;100.00
11085;BME280;5596;46.826;8.650;2023-03-24T12:29:14;95598.28;;;15.47;100.00
11085;BME280;5596;46.826;8.650;2023-03-24T12:31:52;95607.06;;;15.19;100.00
11085;BME280;5596;46.826;8.650;2023-03-24T12:34:32;95598.97;;;15.03;100.00
11085;BME280;5596;46.826;8.650;2023-03-24T12:37:05;95593.03;;;14.81;100.00
11085;BME280;5596;46.826;8.650;2023-03-24T12:39:34;95592.25;;;14.65;100.00
11085;BME280;5596;46.826;8.650;2023-03-24T12:42:08;95595.53;;;14.62;100.00
11085;BME280;5596;46.826;8.650;2023-03-24T12:47:31;95591.75;;;14.43;100.00
11085;BME280;5596;46.826;8.650;2023-03-24T12:50:12;95589.81;;;14.33;100.00
11085;BME280;5596;46.826;8.650;2023-03-24T12:52:53;95613.41;;;14.23;100.00
11085;BME280;5596;46.826;8.650;2023-03-24T12:55:27;95625.66;;;14.10;100.00
11085;BME280;5596;46.826;8.650;2023-03-24T12:57:55;95629.13;;;13.95;100.00
11085;BME280;5596;46.826;8.650;2023-03-24T13:00:25;95640.25;;;13.89;100.00
11085;BME280;5596;46.826;8.650;2023-03-24T13:02:56;95654.38;;;13.91;100.00
11085;BME280;5596;46.826;8.650;2023-03-24T13:05:25;95654.91;;;13.83;100.00
11085;BME280;5596;46.826;8.650;2023-03-24T13:07:55;95662.75;;;13.79;100.00
11085;BME280;5596;46.826;8.650;2023-03-24T13:10:27;95668.13;;;13.64;100.00
11085;BME280;5596;46.826;8.650;2023-03-24T13:12:57;95673.81;;;13.62;100.00
11085;BME280;5596;46.826;8.650;2023-03-24T13:15:26;95676.72;;;13.46;100.00
11085;BME280;5596;46.826;8.650;2023-03-24T13:18:00;95689.97;;;13.37;100.00
11085;BME280;5596;46.826;8.650;2023-03-24T13:20:31;95704.84;;;13.24;100.00
11085;BME280;5596;46.826;8.650;2023-03-24T13:23:14;95709.59;;;13.12;100.00
11085;BME280;5596;46.826;8.650;2023-03-24T13:25:48;95707.13;;;13.06;100.00
11085;BME280;5596;46.826;8.650;2023-03-24T13:28:17;95695.44;;;13.00;100.00
11085;BME280;5596;46.826;8.650;2023-03-24T13:30:46;95696.34;;;12.74;100.00
11085;BME280;5596;46.826;8.650;2023-03-24T13:33:16;95696.28;;;12.69;100.00
11085;BME280;5596;46.826;8.650;2023-03-24T13:38:32;95676.63;;;12.83;100.00
11085;BME280;5596;46.826;8.650;2023-03-24T13:41:02;95669.66;;;12.98;100.00
11085;BME280;5596;46.826;8.650;2023-03-24T13:43:30;95674.56;;;13.01;100.00
11085;BME280;5596;46.826;8.650;2023-03-24T13:45:59;95673.53;;;13.07;100.00
11085;BME280;5596;46.826;8.650;2023-03-24T13:48:33;95671.44;;;13.19;100.00
11085;BME280;5596;46.826;8.650;2023-03-24T13:51:02;95661.97;;;13.21;100.00
11085;BME280;5596;46.826;8.650;2023-03-24T13:53:32;95668.50;;;13.25;100.00